sensor_id;sensor_type;location;lat;lon;timestamp;pressure;altitude;pressure_sealevel;temperature;humidity
10484;BME280;5289;42.610;23.362;2022-07-29T05:57:27;93306.00;;;39.30;100.00
10484;BME280;5289;42.610;23.362;2022-07-29T05:59:58;93324.09;;;38.45;100.00
10484;BME280;5289;42.610;23.362;2022-07-29T06:14:39;93301.50;;;38.32;100.00
10484;BME280;5289;42.610;23.362;2022-07-29T06:23:17;93338.88;;;38.90;100.00
10484;BME280;5289;42.610;23.362;2022-07-29T06:32:09;93359.53;;;39.36;100.00
10484;BME280;5289;42.610;23.362;2022-07-29T06:34:37;93313.22;;;39.12;100.00
10484;BME280;5289;42.610;23.362;2022-07-29T06:40:14;93358.44;;;40.18;100.00
10484;BME280;5289;42.610;23.362;2022-07-29T06:42:58;93347.59;;;40.36;100.00
10484;BME280;5289;42.610;23.362;2022-07-29T06:45:26;93353.00;;;39.22;100.00
10484;BME280;5289;42.610;23.362;2022-07-29T06:47:54;93317.66;;;40.31;100.00
10484;BME280;5289;42.610;23.362;2022-07-29T06:50:21;93350.69;;;40.27;100.00
10484;BME280;5289;42.610;23.362;2022-07-29T06:55:57;93326.59;;;38.57;100.00
10484;BME280;5289;42.610;23.362;2022-07-29T06:58:24;93350.25;;;39.48;100.00
10484;BME280;5289;42.610;23.362;2022-07-29T07:00:51;93334.09;;;40.20;100.00
10484;BME280;5289;42.610;23.362;2022-07-29T07:03:20;93320.34;;;40.24;100.00
10484;BME280;5289;42.610;23.362;2022-07-29T07:05:48;93347.31;;;40.48;100.00
10484;BME280;5289;42.610;23.362;2022-07-29T07:08:15;93339.22;;;38.36;100.00
10484;BME280;5289;42.610;23.362;2022-07-29T07:10:42;93324.59;;;38.81;100.00
10484;BME280;5289;42.610;23.362;2022-07-29T07:13:10;93331.03;;;39.92;100.00
10484;BME280;5289;42.610;23.362;2022-07-29T07:15:40;93353.16;;;39.99;100.00
10484;BME280;5289;42.610;23.362;2022-07-29T07:18:07;93344.19;;;40.09;100.00
10484;BME280;5289;42.610;23.362;2022-07-29T07:20:36;93353.59;;;39.68;100.00
10484;BME280;5289;42.610;23.362;2022-07-29T07:23:03;93326.69;;;39.54;100.00
10484;BME280;5289;42.610;23.362;2022-07-29T07:25:29;93343.44;;;39.38;100.00
10484;BME280;5289;42.610;23.362;2022-07-29T07:27:56;93291.13;;;39.72;100.00
10484;BME280;5289;42.610;23.362;2022-07-29T07:30:24;93322.84;;;38.95;100.00
10484;BME280;5289;42.610;23.362;2022-07-29T07:32:50;93313.03;;;40.02;100.00
10484;BME280;5289;42.610;23.362;2022-07-29T07:35:17;93326.00;;;39.61;100.00
10484;BME280;5289;42.610;23.362;2022-07-29T07:37:45;93320.75;;;38.59;100.00
10484;BME280;5289;42.610;23.362;2022-07-29T07:40:12;93312.50;;;38.59;100.00
10484;BME280;5289;42.610;23.362;2022-07-29T07:42:39;93294.44;;;38.58;100.00
10484;BME280;5289;42.610;23.362;2022-07-29T07:45:05;93330.28;;;39.25;100.00
10484;BME280;5289;42.610;23.362;2022-07-29T07:47:34;93305.88;;;39.53;100.00
10484;BME280;5289;42.610;23.362;2022-07-29T07:50:00;93332.41;;;39.35;100.00
10484;BME280;5289;42.610;23.362;2022-07-29T07:52:27;93293.97;;;39.12;100.00
10484;BME280;5289;42.610;23.362;2022-07-29T07:54:55;93314.34;;;39.74;100.00
10484;BME280;5289;42.610;23.362;2022-07-29T07:57:21;93334.59;;;40.33;100.00
10484;BME280;5289;42.610;23.362;2022-07-29T07:59:48;93334.63;;;39.59;100.00
10484;BME280;5289;42.610;23.362;2022-07-29T08:02:14;93328.31;;;40.39;100.00
10484;BME280;5289;42.610;23.362;2022-07-29T08:04:42;93329.13;;;39.59;100.00
10484;BME280;5289;42.610;23.362;2022-07-29T08:07:09;93339.59;;;39.80;100.00
10484;BME280;5289;42.610;23.362;2022-07-29T08:09:35;93333.59;;;40.11;100.00
10484;BME280;5289;42.610;23.362;2022-07-29T08:12:03;93310.28;;;38.94;100.00
10484;BME280;5289;42.610;23.362;2022-07-29T08:14:31;93291.22;;;39.12;100.00
10484;BME280;5289;42.610;23.362;2022-07-29T08:16:57;93328.03;;;40.52;100.00
10484;BME280;5289;42.610;23.362;2022-07-29T08:19:24;93332.09;;;40.65;100.00
10484;BME280;5289;42.610;23.362;2022-07-29T08:21:54;93336.38;;;39.74;100.00
10484;BME280;5289;42.610;23.362;2022-07-29T08:24:21;93329.41;;;39.17;100.00
10484;BME280;5289;42.610;23.362;2022-07-29T08:27:06;93322.50;;;39.64;100.00
10484;BME280;5289;42.610;23.362;2022-07-29T08:29:33;93337.88;;;40.05;100.00
10484;BME280;5289;42.610;23.362;2022-07-29T08:31:59;93277.63;;;40.00;100.00
10484;BME280;5289;42.610;23.362;2022-07-29T08:34:26;93308.25;;;40.97;100.00
10484;BME280;5289;42.610;23.362;2022-07-29T08:36:53;93354.41;;;40.53;100.00
10484;BME280;5289;42.610;23.362;2022-07-29T08:39:20;93339.69;;;40.34;100.00
10484;BME280;5289;42.610;23.362;2022-07-29T08:41:47;93317.41;;;40.54;100.00
10484;BME280;5289;42.610;23.362;2022-07-29T08:44:16;93345.97;;;40.83;100.00
10484;BME280;5289;42.610;23.362;2022-07-29T08:46:43;93326.72;;;40.93;100.00
10484;BME280;5289;42.610;23.362;2022-07-29T08:49:09;93331.69;;;40.19;100.00
10484;BME280;5289;42.610;23.362;2022-07-29T08:51:36;93337.69;;;40.75;100.00
10484;BME280;5289;42.610;23.362;2022-07-29T08:54:05;93336.78;;;40.17;100.00
10484;BME280;5289;42.610;23.362;2022-07-29T08:56:32;93336.75;;;40.61;100.00
10484;BME280;5289;42.610;23.362;2022-07-29T08:58:59;93331.03;;;40.32;100.00
10484;BME280;5289;42.610;23.362;2022-07-29T09:01:29;93317.03;;;40.08;100.00
10484;BME280;5289;42.610;23.362;2022-07-29T09:03:58;93324.47;;;40.48;100.00
10484;BME280;5289;42.610;23.362;2022-07-29T09:06:26;93328.03;;;40.52;100.00
10484;BME280;5289;42.610;23.362;2022-07-29T09:08:56;93320.41;;;39.20;100.00
10484;BME280;5289;42.610;23.362;2022-07-29T09:11:25;93295.78;;;38.18;100.00
10484;BME280;5289;42.610;23.362;2022-07-29T09:13:51;93302.66;;;39.14;100.00
10484;BME280;5289;42.610;23.362;2022-07-29T09:16:18;93303.22;;;38.97;100.00
10484;BME280;5289;42.610;23.362;2022-07-29T09:18:46;93311.50;;;39.30;100.00
10484;BME280;5289;42.610;23.362;2022-07-29T09:21:13;93327.75;;;40.16;100.00
10484;BME280;5289;42.610;23.362;2022-07-29T09:24:02;93322.41;;;39.53;100.00
10484;BME280;5289;42.610;23.362;2022-07-29T09:26:29;93313.03;;;39.61;100.00
10484;BME280;5289;42.610;23.362;2022-07-29T09:28:56;93315.72;;;39.21;100.00
10484;BME280;5289;42.610;23.362;2022-07-29T09:31:26;93308.22;;;39.91;100.00
10484;BME280;5289;42.610;23.362;2022-07-29T09:33:59;93313.41;;;37.94;100.00
10484;BME280;5289;42.610;23.362;2022-07-29T09:36:26;93232.44;;;37.59;100.00
10484;BME280;5289;42.610;23.362;2022-07-29T09:38:56;93232.31;;;37.29;100.00
10484;BME280;5289;42.610;23.362;2022-07-29T09:41:24;93244.06;;;35.86;100.00
10484;BME280;5289;42.610;23.362;2022-07-29T09:43:54;93219.28;;;33.96;100.00
10484;BME280;5289;42.610;23.362;2022-07-29T09:46:21;93148.25;;;33.08;100.00
10484;BME280;5289;42.610;23.362;2022-07-29T10:16:17;92909.22;;;30.88;100.00
10484;BME280;5289;42.610;23.362;2022-07-29T10:19:06;92875.00;;;31.49;100.00
10484;BME280;5289;42.610;23.362;2022-07-29T10:21:37;92942.03;;;31.45;100.00
10484;BME280;5289;42.610;23.362;2022-07-29T10:27:24;92907.53;;;31.25;100.00
10484;BME280;5289;42.610;23.362;2022-07-29T10:29:53;92995.22;;;30.75;100.00
10484;BME280;5289;42.610;23.362;2022-07-29T10:32:34;92973.81;;;30.44;100.00
10484;BME280;5289;42.610;23.362;2022-07-29T10:50:09;92785.56;;;30.37;100.00
10484;BME280;5289;42.610;23.362;2022-07-29T10:55:37;92635.34;;;29.88;100.00
10484;BME280;5289;42.610;23.362;2022-07-29T11:26:47;92760.63;;;31.30;100.00
10484;BME280;5289;42.610;23.362;2022-07-29T11:56:59;92885.78;;;29.87;100.00
10484;BME280;5289;42.610;23.362;2022-07-29T12:02:45;92470.97;;;29.71;100.00
10484;BME280;5289;42.610;23.362;2022-07-29T12:13:59;92516.06;;;29.34;100.00
10484;BME280;5289;42.610;23.362;2022-07-29T12:19:22;92728.78;;;29.90;100.00
10484;BME280;5289;42.610;23.362;2022-07-29T12:21:52;93028.81;;;29.98;100.00
10484;BME280;5289;42.610;23.362;2022-07-29T12:30:47;92811.69;;;29.91;100.00
10484;BME280;5289;42.610;23.362;2022-07-29T12:33:21;92778.25;;;30.08;100.00
10484;BME280;5289;42.610;23.362;2022-07-29T12:35:54;92761.31;;;29.82;100.00
10484;BME280;5289;42.610;23.362;2022-07-29T12:41:56;92851.03;;;29.89;100.00
10484;BME280;5289;42.610;23.362;2022-07-29T12:44:30;92869.72;;;30.20;100.00
10484;BME280;5289;42.610;23.362;2022-07-29T12:47:42;92551.22;;;30.50;100.00
10484;BME280;5289;42.610;23.362;2022-07-29T12:50:27;92795.78;;;30.61;100.00
10484;BME280;5289;42.610;23.362;2022-07-29T12:53:19;92798.06;;;30.00;100.00
10484;BME280;5289;42.610;23.362;2022-07-29T12:56:09;92673.31;;;29.58;100.00
10484;BME280;5289;42.610;23.362;2022-07-29T12:58:44;92584.34;;;29.69;100.00
10484;BME280;5289;42.610;23.362;2022-07-29T13:01:15;92546.22;;;29.53;100.00
10484;BME280;5289;42.610;23.362;2022-07-29T13:15:22;92254.22;;;29.02;100.00
10484;BME280;5289;42.610;23.362;2022-07-29T13:48:21;92299.97;;;29.85;100.00
10484;BME280;5289;42.610;23.362;2022-07-29T13:57:22;92441.50;;;30.02;100.00
10484;BME280;5289;42.610;23.362;2022-07-29T13:59:52;92743.75;;;29.96;100.00
10484;BME280;5289;42.610;23.362;2022-07-29T14:02:37;92559.94;;;29.90;100.00
10484;BME280;5289;42.610;23.362;2022-07-29T14:11:21;92548.69;;;30.00;100.00
10484;BME280;5289;42.610;23.362;2022-07-29T14:14:03;92406.84;;;29.96;100.00
10484;BME280;5289;42.610;23.362;2022-07-29T14:16:37;92366.84;;;29.93;100.00
10484;BME280;5289;42.610;23.362;2022-07-29T14:22:22;92445.84;;;29.83;100.00
10484;BME280;5289;42.610;23.362;2022-07-29T14:28:08;92516.75;;;29.85;100.00
10484;BME280;5289;42.610;23.362;2022-07-29T14:33:47;92676.75;;;29.67;100.00
10484;BME280;5289;42.610;23.362;2022-07-29T17:16:20;90551.59;;;23.31;100.00
10484;BME280;5289;42.610;23.362;2022-07-29T17:18:55;90535.19;;;23.32;100.00
10484;BME280;5289;42.610;23.362;2022-07-29T17:24:20;90530.41;;;23.26;100.00
10484;BME280;5289;42.610;23.362;2022-07-29T17:27:03;90541.34;;;23.21;100.00
10484;BME280;5289;42.610;23.362;2022-07-29T17:29:47;90596.31;;;23.15;100.00
10484;BME280;5289;42.610;23.362;2022-07-29T17:32:22;90617.75;;;23.02;100.00
10484;BME280;5289;42.610;23.362;2022-07-29T17:34:51;90702.41;;;22.91;100.00
10484;BME280;5289;42.610;23.362;2022-07-29T17:37:20;90757.53;;;22.80;100.00
10484;BME280;5289;42.610;23.362;2022-07-29T17:39:53;90765.16;;;22.70;100.00
10484;BME280;5289;42.610;23.362;2022-07-29T17:42:25;90841.53;;;22.55;100.00
10484;BME280;5289;42.610;23.362;2022-07-29T17:47:52;91105.66;;;22.21;100.00
10484;BME280;5289;42.610;23.362;2022-07-29T17:50:23;91121.44;;;22.06;100.00
10484;BME280;5289;42.610;23.362;2022-07-29T17:52:53;91073.44;;;21.92;100.00
10484;BME280;5289;42.610;23.362;2022-07-29T17:55:22;91055.03;;;21.82;100.00
10484;BME280;5289;42.610;23.362;2022-07-29T18:01:17;91049.13;;;21.51;100.00
10484;BME280;5289;42.610;23.362;2022-07-29T18:06:46;90899.63;;;21.28;100.00
10484;BME280;5289;42.610;23.362;2022-07-29T18:09:27;90831.13;;;21.15;100.00
10484;BME280;5289;42.610;23.362;2022-07-29T18:11:56;90771.09;;;21.04;100.00
10484;BME280;5289;42.610;23.362;2022-07-29T18:17:23;90678.66;;;20.82;100.00
10484;BME280;5289;42.610;23.362;2022-07-29T18:20:08;90725.00;;;20.78;100.00
10484;BME280;5289;42.610;23.362;2022-07-29T18:22:38;90775.44;;;20.71;100.00
10484;BME280;5289;42.610;23.362;2022-07-29T18:28:20;90777.03;;;20.54;100.00
10484;BME280;5289;42.610;23.362;2022-07-29T18:33:58;90756.81;;;20.36;100.00
10484;BME280;5289;42.610;23.362;2022-07-29T18:36:27;90761.22;;;20.32;100.00
10484;BME280;5289;42.610;23.362;2022-07-29T18:38:57;90771.22;;;20.27;100.00
10484;BME280;5289;42.610;23.362;2022-07-29T18:41:40;90784.25;;;20.19;100.00
10484;BME280;5289;42.610;23.362;2022-07-29T18:44:17;90815.31;;;20.15;100.00
10484;BME280;5289;42.610;23.362;2022-07-29T18:46:45;90793.84;;;20.12;100.00
10484;BME280;5289;42.610;23.362;2022-07-29T18:49:14;90770.59;;;20.04;100.00
10484;BME280;5289;42.610;23.362;2022-07-29T18:51:42;90767.00;;;20.00;100.00
10484;BME280;5289;42.610;23.362;2022-07-29T18:54:22;90800.72;;;19.96;100.00
10484;BME280;5289;42.610;23.362;2022-07-29T18:59:59;90862.81;;;19.88;100.00
10484;BME280;5289;42.610;23.362;2022-07-29T19:05:32;90907.69;;;19.86;100.00
10484;BME280;5289;42.610;23.362;2022-07-29T19:08:10;90954.91;;;19.85;100.00
10484;BME280;5289;42.610;23.362;2022-07-29T19:13:38;90953.97;;;19.81;100.00
10484;BME280;5289;42.610;23.362;2022-07-29T19:16:04;90947.66;;;19.77;100.00
10484;BME280;5289;42.610;23.362;2022-07-29T19:18:31;90957.38;;;19.73;100.00
10484;BME280;5289;42.610;23.362;2022-07-29T19:20:58;90958.78;;;19.70;100.00
10484;BME280;5289;42.610;23.362;2022-07-29T19:23:25;90949.22;;;19.69;100.00
10484;BME280;5289;42.610;23.362;2022-07-29T19:25:51;90951.69;;;19.66;100.00
10484;BME280;5289;42.610;23.362;2022-07-29T19:28:18;90951.06;;;19.60;100.00
10484;BME280;5289;42.610;23.362;2022-07-29T19:30:46;90931.41;;;19.56;100.00
10484;BME280;5289;42.610;23.362;2022-07-29T19:33:12;90916.84;;;19.54;100.00
10484;BME280;5289;42.610;23.362;2022-07-29T19:35:41;90967.94;;;19.56;100.00
10484;BME280;5289;42.610;23.362;2022-07-29T19:38:08;90966.56;;;19.58;100.00
10484;BME280;5289;42.610;23.362;2022-07-29T19:40:35;90955.41;;;19.56;100.00
10484;BME280;5289;42.610;23.362;2022-07-29T19:43:03;90953.19;;;19.50;100.00
10484;BME280;5289;42.610;23.362;2022-07-29T19:45:31;90938.16;;;19.54;100.00
10484;BME280;5289;42.610;23.362;2022-07-29T19:47:59;90937.22;;;19.50;100.00
10484;BME280;5289;42.610;23.362;2022-07-29T19:50:28;90933.56;;;19.46;100.00
10484;BME280;5289;42.610;23.362;2022-07-29T19:52:54;90950.63;;;19.45;100.00
10484;BME280;5289;42.610;23.362;2022-07-29T19:55:21;90962.69;;;19.42;100.00
10484;BME280;5289;42.610;23.362;2022-07-29T19:57:48;90960.63;;;19.39;100.00
10484;BME280;5289;42.610;23.362;2022-07-29T20:00:15;90968.63;;;19.39;100.00
10484;BME280;5289;42.610;23.362;2022-07-29T20:02:42;90927.81;;;19.30;100.00
10484;BME280;5289;42.610;23.362;2022-07-29T20:05:10;90928.44;;;19.27;100.00
10484;BME280;5289;42.610;23.362;2022-07-29T20:07:37;90937.53;;;19.26;100.00
10484;BME280;5289;42.610;23.362;2022-07-29T20:10:04;90951.47;;;19.23;100.00
10484;BME280;5289;42.610;23.362;2022-07-29T20:12:31;90967.44;;;19.23;100.00
10484;BME280;5289;42.610;23.362;2022-07-29T20:14:58;90957.88;;;19.22;100.00
10484;BME280;5289;42.610;23.362;2022-07-29T20:17:25;90985.09;;;19.19;100.00
10484;BME280;5289;42.610;23.362;2022-07-29T20:19:52;91001.56;;;19.21;100.00
10484;BME280;5289;42.610;23.362;2022-07-29T20:22:30;91072.59;;;19.25;100.00
10484;BME280;5289;42.610;23.362;2022-07-29T20:25:05;91074.47;;;19.25;100.00
10484;BME280;5289;42.610;23.362;2022-07-29T20:27:35;91044.69;;;19.23;100.00
10484;BME280;5289;42.610;23.362;2022-07-29T20:35:49;91113.66;;;19.24;100.00
10484;BME280;5289;42.610;23.362;2022-07-29T20:38:35;91113.66;;;19.24;100.00
10484;BME280;5289;42.610;23.362;2022-07-29T20:41:32;91082.41;;;19.16;100.00
10484;BME280;5289;42.610;23.362;2022-07-29T20:44:01;91163.97;;;19.26;100.00
10484;BME280;5289;42.610;23.362;2022-07-29T20:49:47;91145.22;;;19.31;100.00
10484;BME280;5289;42.610;23.362;2022-07-29T20:52:19;91174.91;;;19.24;100.00
10484;BME280;5289;42.610;23.362;2022-07-29T20:54:52;91163.97;;;19.26;100.00
10484;BME280;5289;42.610;23.362;2022-07-29T20:57:23;91171.47;;;19.24;100.00
10484;BME280;5289;42.610;23.362;2022-07-29T21:02:47;91201.38;;;19.21;100.00
10484;BME280;5289;42.610;23.362;2022-07-29T21:05:17;91174.25;;;19.19;100.00
10484;BME280;5289;42.610;23.362;2022-07-29T21:07:45;91161.25;;;19.17;100.00
10484;BME280;5289;42.610;23.362;2022-07-29T21:16:06;91161.94;;;19.09;100.00
10484;BME280;5289;42.610;23.362;2022-07-29T21:18:38;91135.00;;;19.11;100.00
10484;BME280;5289;42.610;23.362;2022-07-29T21:21:27;91141.13;;;19.11;100.00
10484;BME280;5289;42.610;23.362;2022-07-29T21:24:07;91139.03;;;19.08;100.00
10484;BME280;5289;42.610;23.362;2022-07-29T21:26:55;91109.56;;;19.05;100.00
10484;BME280;5289;42.610;23.362;2022-07-29T21:51:45;91075.72;;;18.69;100.00
10484;BME280;5289;42.610;23.362;2022-07-29T21:54:15;91079.56;;;18.63;100.00
10484;BME280;5289;42.610;23.362;2022-07-29T21:56:45;91039.16;;;18.61;100.00
10484;BME280;5289;42.610;23.362;2022-07-29T22:02:21;91011.56;;;18.57;100.00
10484;BME280;5289;42.610;23.362;2022-07-29T22:04:51;91026.25;;;18.55;100.00
10484;BME280;5289;42.610;23.362;2022-07-29T22:07:27;91020.72;;;18.51;100.00
